Terminal Aerodrome Forecast
Issued by NWS

Home | Current Version | Previous Version | Text Only | Print | Product List | Glossary On
Versions: 1 2 3 4 5 6 7 8 9 10 11 12 13 14 15 16 17 18 19 20 21 22 23 24 25
000
FTUS41 KOKX 181900 AAA
TAFSWF
TAF AMD
KSWF 181941Z 1820/1924 19006KT P6SM BKN150
     FM190100 VRB03KT P6SM BKN150
     FM190900 29005KT P6SM SCT250
     FM191400 33012G20KT P6SM SCT250
     FM191900 34016G22KT P6SM SKC
      AMD NOT SKED=

USA.gov is the U.S. government's official web portal to all federal, state and local government web resources and services.